createdAt,value
2022-11-27T00:00:52.467Z,9.57
2022-11-27T00:03:20.470Z,9.20
2022-11-27T00:05:53.582Z,10.80
2022-11-27T00:08:21.451Z,10.17
2022-11-27T00:10:49.148Z,9.60
2022-11-27T00:13:17.276Z,10.10
2022-11-27T00:15:46.574Z,10.53
2022-11-27T00:18:14.343Z,9.90
2022-11-27T00:20:42.066Z,9.27
2022-11-27T00:23:09.770Z,9.17
2022-11-27T00:25:37.523Z,9.00
2022-11-27T00:28:05.510Z,8.80
2022-11-27T00:30:33.233Z,10.17
2022-11-27T00:33:02.544Z,11.03
2022-11-27T00:35:30.314Z,10.23
2022-11-27T00:37:58.033Z,10.00
2022-11-27T00:40:25.721Z,10.70
2022-11-27T00:42:53.531Z,10.73
2022-11-27T00:45:21.239Z,11.27
2022-11-27T00:47:49.007Z,10.73
2022-11-27T00:50:18.118Z,10.70
2022-11-27T00:52:45.888Z,10.43
2022-11-27T00:55:14.051Z,10.20
2022-11-27T00:57:41.720Z,8.80
2022-11-27T01:00:10.538Z,10.87
2022-11-27T01:02:38.282Z,9.97
2022-11-27T01:05:06.824Z,10.17
2022-11-27T01:07:35.962Z,9.87
2022-11-27T01:10:03.736Z,9.63
2022-11-27T01:12:31.468Z,8.60
2022-11-27T01:14:59.387Z,10.33
2022-11-27T01:17:27.089Z,8.50
2022-11-27T01:19:54.823Z,10.30
2022-11-27T01:22:22.537Z,10.27
2022-11-27T01:24:51.580Z,8.77
2022-11-27T01:27:19.292Z,9.03
2022-11-27T01:29:46.979Z,7.37
2022-11-27T01:32:14.778Z,10.97
2022-11-27T01:34:42.735Z,8.73
2022-11-27T01:37:10.492Z,8.83
2022-11-27T01:39:38.318Z,8.87
2022-11-27T01:42:07.424Z,9.90
2022-11-27T01:44:59.293Z,9.63
2022-11-27T01:47:45.040Z,10.00
2022-11-27T01:50:20.374Z,9.83
2022-11-27T01:52:55.386Z,9.30
2022-11-27T01:55:29.796Z,8.60
2022-11-27T01:58:01.670Z,8.87
2022-11-27T02:00:29.644Z,8.20
2022-11-27T02:02:57.757Z,8.13
2022-11-27T02:05:28.547Z,7.57
2022-11-27T02:07:58.899Z,7.43
2022-11-27T02:10:37.067Z,6.73
2022-11-27T02:13:10.565Z,6.93
2022-11-27T02:15:46.021Z,7.53
2022-11-27T02:18:19.898Z,6.67
2022-11-27T02:20:57.937Z,6.43
2022-11-27T02:23:54.879Z,6.20
2022-11-27T02:26:51.705Z,7.37
2022-11-27T02:29:23.407Z,6.20
2022-11-27T02:31:59.222Z,6.43
2022-11-27T02:34:32.696Z,5.97
2022-11-27T02:37:10.238Z,6.77
2022-11-27T02:39:42.303Z,6.37
2022-11-27T02:42:15.985Z,5.87
2022-11-27T02:44:48.731Z,7.00
2022-11-27T02:47:16.689Z,5.90
2022-11-27T02:49:46.692Z,5.73
2022-11-27T02:52:18.856Z,5.87
2022-11-27T02:54:49.870Z,6.10
2022-11-27T02:57:19.928Z,6.67
2022-11-27T02:59:51.802Z,6.10
2022-11-27T03:02:30.831Z,5.37
2022-11-27T03:05:01.665Z,7.10
2022-11-27T03:07:38.757Z,7.57
2022-11-27T03:10:11.000Z,8.10
2022-11-27T03:12:38.751Z,5.93
2022-11-27T03:15:09.387Z,7.37
2022-11-27T03:17:44.825Z,5.40
2022-11-27T03:20:19.767Z,7.87
2022-11-27T03:22:47.614Z,6.00
2022-11-27T03:25:16.265Z,6.43
2022-11-27T03:27:49.782Z,6.60
2022-11-27T03:30:18.944Z,5.73
2022-11-27T03:32:46.910Z,5.47
2022-11-27T03:35:17.364Z,5.57
2022-11-27T03:37:45.184Z,7.00
2022-11-27T03:40:14.214Z,6.27
2022-11-27T03:42:56.287Z,6.80
2022-11-27T03:45:35.161Z,5.60
2022-11-27T03:48:15.634Z,6.13
2022-11-27T03:50:55.812Z,6.40
2022-11-27T03:53:29.964Z,6.70
2022-11-27T03:56:10.014Z,6.07
2022-11-27T03:58:42.480Z,6.17
2022-11-27T04:01:14.296Z,7.67
2022-11-27T04:03:42.077Z,6.23
2022-11-27T04:06:09.850Z,5.93
2022-11-27T04:08:37.547Z,5.90
2022-11-27T04:11:05.449Z,5.77
2022-11-27T04:13:33.192Z,6.10
2022-11-27T04:16:02.291Z,5.90
2022-11-27T04:18:31.472Z,5.83
2022-11-27T04:20:59.227Z,5.77
2022-11-27T04:23:27.044Z,6.47
2022-11-27T04:25:54.751Z,6.53
2022-11-27T04:28:22.463Z,6.17
2022-11-27T04:30:53.063Z,6.30
2022-11-27T04:33:20.919Z,6.00
2022-11-27T04:35:50.391Z,5.17
2022-11-27T04:38:18.257Z,5.97
2022-11-27T04:40:46.007Z,5.70
2022-11-27T04:43:14.559Z,5.33
2022-11-27T04:45:43.791Z,6.10
2022-11-27T04:48:11.481Z,5.57
2022-11-27T04:50:39.319Z,6.07
2022-11-27T04:53:08.352Z,7.10
2022-11-27T04:55:36.620Z,6.50
2022-11-27T04:58:04.373Z,6.50
2022-11-27T05:00:32.289Z,6.40
2022-11-27T05:03:00.158Z,6.80
2022-11-27T05:05:27.983Z,6.83
2022-11-27T05:07:55.789Z,6.63
2022-11-27T05:10:27.425Z,6.23
2022-11-27T05:12:55.157Z,6.27
2022-11-27T05:15:22.867Z,5.73
2022-11-27T05:17:50.565Z,6.87
2022-11-27T05:20:18.638Z,6.77
2022-11-27T05:22:48.141Z,7.23
2022-11-27T05:25:16.081Z,5.90
2022-11-27T05:27:45.341Z,7.37
2022-11-27T05:30:13.475Z,6.17
2022-11-27T05:32:41.175Z,6.93
2022-11-27T05:35:09.615Z,6.60
2022-11-27T05:37:37.320Z,6.53
2022-11-27T05:40:05.843Z,7.13
2022-11-27T05:42:33.556Z,7.87
2022-11-27T05:45:02.832Z,8.10
2022-11-27T05:47:30.556Z,8.97
2022-11-27T05:49:58.227Z,7.73
2022-11-27T05:52:25.951Z,6.50
2022-11-27T05:54:54.936Z,6.50
2022-11-27T05:57:22.747Z,6.50
2022-11-27T05:59:50.475Z,8.03
2022-11-27T06:02:23.767Z,8.57
2022-11-27T06:04:54.298Z,8.03
2022-11-27T06:07:22.006Z,8.27
2022-11-27T06:09:49.719Z,10.27
2022-11-27T06:12:17.460Z,10.57
2022-11-27T06:14:45.194Z,10.07
2022-11-27T06:17:15.621Z,9.27
2022-11-27T06:19:44.809Z,8.70
2022-11-27T06:22:12.550Z,13.20
2022-11-27T06:24:40.546Z,9.13
2022-11-27T06:27:08.496Z,8.43
2022-11-27T06:29:37.702Z,6.73
2022-11-27T06:32:06.632Z,7.10
2022-11-27T06:34:34.500Z,6.50
2022-11-27T06:37:03.623Z,6.43
2022-11-27T06:39:31.489Z,7.67
2022-11-27T06:41:59.362Z,7.03
2022-11-27T06:44:27.142Z,7.00
2022-11-27T06:46:54.889Z,7.40
2022-11-27T06:49:22.832Z,7.47
2022-11-27T06:51:50.917Z,6.27
2022-11-27T06:54:19.968Z,6.83
2022-11-27T06:56:50.823Z,7.47
2022-11-27T06:59:18.876Z,7.73
2022-11-27T07:01:47.305Z,6.33
2022-11-27T07:04:16.128Z,6.43
2022-11-27T07:06:44.470Z,6.87
2022-11-27T07:09:12.212Z,7.50
2022-11-27T07:11:41.507Z,7.03
2022-11-27T07:14:09.244Z,7.50
2022-11-27T07:16:37.958Z,7.73
2022-11-27T07:19:08.489Z,7.63
2022-11-27T07:21:38.667Z,7.20
2022-11-27T07:24:07.127Z,7.27
2022-11-27T07:26:35.131Z,7.00
2022-11-27T07:29:04.256Z,7.40
2022-11-27T07:31:32.288Z,8.20
2022-11-27T07:34:00.511Z,8.60
2022-11-27T07:36:30.052Z,9.40
2022-11-27T07:38:58.355Z,7.37
2022-11-27T07:41:30.777Z,7.57
2022-11-27T07:44:00.335Z,7.07
2022-11-27T07:46:30.144Z,7.93
2022-11-27T07:48:58.119Z,7.80
2022-11-27T07:51:25.880Z,7.57
2022-11-27T07:53:53.609Z,8.83
2022-11-27T07:56:21.548Z,9.50
2022-11-27T07:58:49.601Z,8.40
2022-11-27T08:01:19.627Z,8.77
2022-11-27T08:03:48.801Z,9.20
2022-11-27T08:06:19.276Z,9.10
2022-11-27T08:08:47.028Z,10.17
2022-11-27T08:11:19.258Z,10.90
2022-11-27T08:13:47.296Z,10.57
2022-11-27T08:16:15.674Z,9.47
2022-11-27T08:18:43.707Z,9.80
2022-11-27T08:21:13.247Z,9.43
2022-11-27T08:23:41.372Z,10.50
2022-11-27T08:26:10.835Z,9.13
2022-11-27T08:28:39.518Z,12.47
2022-11-27T08:31:09.336Z,11.40
2022-11-27T08:33:37.659Z,10.27
2022-11-27T08:36:08.979Z,10.10
2022-11-27T08:38:39.869Z,11.37
2022-11-27T08:41:09.093Z,10.80
2022-11-27T08:43:37.177Z,10.23
2022-11-27T08:46:06.051Z,10.13
2022-11-27T08:48:34.297Z,9.97
2022-11-27T08:51:07.287Z,10.10
2022-11-27T08:53:36.015Z,9.70
2022-11-27T08:56:08.794Z,10.23
2022-11-27T08:58:36.797Z,10.90
2022-11-27T09:01:09.333Z,9.27
2022-11-27T09:03:37.303Z,8.83
2022-11-27T09:06:07.944Z,8.83
2022-11-27T09:08:35.651Z,9.30
2022-11-27T09:11:04.620Z,9.20
2022-11-27T09:13:36.724Z,9.20
2022-11-27T09:16:05.396Z,10.30
2022-11-27T09:18:33.204Z,10.50
2022-11-27T09:21:02.681Z,8.37
2022-11-27T09:23:31.006Z,9.20
2022-11-27T09:26:00.294Z,9.03
2022-11-27T09:28:31.531Z,8.83
2022-11-27T09:31:03.790Z,9.87
2022-11-27T09:33:34.764Z,12.30
2022-11-27T09:36:06.179Z,13.33
2022-11-27T09:38:35.595Z,10.90
2022-11-27T09:41:16.715Z,11.23
2022-11-27T09:43:50.824Z,9.80
2022-11-27T09:46:31.283Z,9.03
2022-11-27T09:49:02.122Z,9.30
2022-11-27T09:51:35.814Z,10.07
2022-11-27T09:54:09.335Z,11.13
2022-11-27T09:56:37.772Z,9.73
2022-11-27T09:59:15.671Z,10.33
2022-11-27T10:01:50.549Z,9.93
2022-11-27T10:04:21.302Z,13.90
2022-11-27T10:07:06.137Z,10.67
2022-11-27T10:09:46.828Z,12.03
2022-11-27T10:12:24.318Z,14.03
2022-11-27T10:15:04.280Z,10.87
2022-11-27T10:17:41.095Z,10.93
2022-11-27T10:20:20.811Z,11.53
2022-11-27T10:22:57.360Z,9.97
2022-11-27T10:25:30.879Z,11.90
2022-11-27T10:28:09.581Z,11.30
2022-11-27T10:30:43.889Z,10.77
2022-11-27T10:33:23.875Z,10.50
2022-11-27T10:35:52.384Z,13.13
2022-11-27T10:38:23.614Z,13.00
2022-11-27T10:41:01.474Z,12.90
2022-11-27T10:43:29.577Z,11.90
2022-11-27T10:46:02.606Z,11.40
2022-11-27T10:48:32.256Z,10.77
2022-11-27T10:51:00.385Z,10.23
2022-11-27T10:53:31.518Z,10.30
2022-11-27T10:56:24.528Z,11.40
2022-11-27T10:58:56.820Z,11.13
2022-11-27T11:01:27.173Z,11.43
2022-11-27T11:04:24.715Z,12.90
2022-11-27T11:06:57.998Z,10.43
2022-11-27T11:09:29.171Z,10.97
2022-11-27T11:12:08.670Z,11.47
2022-11-27T11:14:37.362Z,10.07
2022-11-27T11:17:17.754Z,10.57
2022-11-27T11:19:47.656Z,11.53
2022-11-27T11:22:17.544Z,10.90
2022-11-27T11:24:48.880Z,10.93
2022-11-27T11:27:23.407Z,11.90
2022-11-27T11:29:53.529Z,12.03
2022-11-27T11:32:25.327Z,11.83
2022-11-27T11:35:00.843Z,10.73
2022-11-27T11:37:31.860Z,11.03
2022-11-27T11:40:03.532Z,11.47
2022-11-27T11:42:33.306Z,11.60
2022-11-27T11:45:05.114Z,12.33
2022-11-27T11:47:33.695Z,13.87
2022-11-27T11:50:03.145Z,12.73
2022-11-27T11:52:53.061Z,11.80
2022-11-27T11:55:27.516Z,11.33
2022-11-27T11:58:20.158Z,10.60
2022-11-27T12:01:25.037Z,11.30
2022-11-27T12:03:57.168Z,12.43
2022-11-27T12:06:43.621Z,9.50
2022-11-27T12:09:25.539Z,8.00
2022-11-27T12:11:58.284Z,8.80
2022-11-27T12:14:41.492Z,9.10
2022-11-27T12:17:22.827Z,9.87
2022-11-27T12:20:04.200Z,10.03
2022-11-27T12:23:03.751Z,8.30
2022-11-27T12:25:36.944Z,7.80
2022-11-27T12:28:28.499Z,8.00
2022-11-27T12:31:06.405Z,7.67
2022-11-27T12:33:58.008Z,9.33
2022-11-27T12:36:46.763Z,8.33
2022-11-27T12:39:26.563Z,8.80
2022-11-27T12:42:07.595Z,8.93
2022-11-27T12:44:50.999Z,10.13
2022-11-27T12:47:25.404Z,9.67
2022-11-27T12:49:58.083Z,9.53
2022-11-27T12:52:29.331Z,10.03
2022-11-27T12:55:03.040Z,10.97
2022-11-27T12:57:37.762Z,10.30
2022-11-27T13:00:08.024Z,11.53
2022-11-27T13:02:39.592Z,11.00
2022-11-27T13:05:11.985Z,12.77
2022-11-27T13:07:45.590Z,10.97
2022-11-27T13:10:23.959Z,10.47
2022-11-27T13:13:00.840Z,10.67
2022-11-27T13:15:32.627Z,10.47
2022-11-27T13:18:08.620Z,11.20
2022-11-27T13:20:39.560Z,10.50
2022-11-27T13:23:07.397Z,10.30
2022-11-27T13:25:43.824Z,11.03
2022-11-27T13:28:22.363Z,10.43
2022-11-27T13:30:52.234Z,11.43
2022-11-27T13:33:33.917Z,11.10
2022-11-27T13:36:03.881Z,10.67
2022-11-27T13:38:33.343Z,11.30
2022-11-27T13:41:05.678Z,10.77
2022-11-27T13:43:43.172Z,10.33
2022-11-27T13:46:19.354Z,10.50
2022-11-27T13:48:51.564Z,10.30
2022-11-27T13:51:28.418Z,8.73
2022-11-27T13:54:08.466Z,9.53
2022-11-27T13:56:37.952Z,9.47
2022-11-27T13:59:16.716Z,10.17
2022-11-27T14:01:55.778Z,9.47
2022-11-27T14:04:23.575Z,10.17
2022-11-27T14:06:58.949Z,9.97
2022-11-27T14:09:36.004Z,10.23
2022-11-27T14:12:19.347Z,10.60
2022-11-27T14:15:00.372Z,10.97
2022-11-27T14:17:34.667Z,9.63
2022-11-27T14:20:07.279Z,10.40
2022-11-27T14:23:07.547Z,10.33
2022-11-27T14:25:36.241Z,10.73
2022-11-27T14:28:15.458Z,10.23
2022-11-27T14:30:47.633Z,10.60
2022-11-27T14:33:20.622Z,11.70
2022-11-27T14:35:52.199Z,11.20
2022-11-27T14:38:20.593Z,10.80
2022-11-27T14:40:48.430Z,11.20
2022-11-27T14:43:19.324Z,11.73
2022-11-27T14:45:50.834Z,11.30
2022-11-27T14:48:24.152Z,11.07
2022-11-27T14:50:53.467Z,10.37
2022-11-27T14:53:26.568Z,10.77
2022-11-27T14:55:58.501Z,10.37
2022-11-27T14:58:29.859Z,10.93
2022-11-27T15:01:03.323Z,10.90
2022-11-27T15:03:31.805Z,10.97
2022-11-27T15:06:01.568Z,10.00
2022-11-27T15:08:31.836Z,9.47
2022-11-27T15:11:01.497Z,10.50
2022-11-27T15:13:33.331Z,10.67
2022-11-27T15:16:04.731Z,10.30
2022-11-27T15:18:35.048Z,10.90
2022-11-27T15:21:04.143Z,10.03
2022-11-27T15:23:34.487Z,11.10
2022-11-27T15:26:14.332Z,11.47
2022-11-27T15:28:52.566Z,11.27
2022-11-27T15:31:30.185Z,11.13
2022-11-27T15:34:01.454Z,10.67
2022-11-27T15:36:36.199Z,11.07
2022-11-27T15:39:20.196Z,10.97
2022-11-27T15:41:55.464Z,11.30
2022-11-27T15:44:25.574Z,11.63
2022-11-27T15:46:55.098Z,10.93
2022-11-27T15:49:23.578Z,11.17
2022-11-27T15:51:52.048Z,10.33
2022-11-27T15:54:19.882Z,11.20
2022-11-27T15:56:47.904Z,10.80
2022-11-27T15:59:16.677Z,11.10
2022-11-27T16:01:45.885Z,11.03
2022-11-27T16:04:13.628Z,14.27
2022-11-27T16:06:41.340Z,15.70
2022-11-27T16:09:09.322Z,14.67
2022-11-27T16:11:37.027Z,15.53
2022-11-27T16:14:04.915Z,15.63
2022-11-27T16:16:33.457Z,14.60
2022-11-27T16:19:04.905Z,12.93
2022-11-27T16:21:33.426Z,13.73
2022-11-27T16:24:03.132Z,12.43
2022-11-27T16:26:31.782Z,11.63
2022-11-27T16:28:59.711Z,11.67
2022-11-27T16:31:28.180Z,10.90
2022-11-27T16:33:55.887Z,12.00
2022-11-27T16:36:25.428Z,12.13
2022-11-27T16:38:54.376Z,13.40
2022-11-27T16:41:22.891Z,14.27
2022-11-27T16:43:52.985Z,14.03
2022-11-27T16:46:23.315Z,13.53
2022-11-27T16:48:51.660Z,13.77
2022-11-27T16:51:22.820Z,13.73
2022-11-27T16:53:53.687Z,14.00
2022-11-27T16:56:24.058Z,14.60
2022-11-27T16:58:54.786Z,16.07
2022-11-27T17:01:26.657Z,15.13
2022-11-27T17:03:54.849Z,16.00
2022-11-27T17:06:25.639Z,15.80
2022-11-27T17:08:56.035Z,16.20
2022-11-27T17:11:25.531Z,17.00
2022-11-27T17:13:56.910Z,16.10
2022-11-27T17:16:25.291Z,15.17
2022-11-27T17:18:53.058Z,15.40
2022-11-27T17:21:24.378Z,16.43
2022-11-27T17:23:53.002Z,16.50
2022-11-27T17:26:23.815Z,14.63
2022-11-27T17:28:55.631Z,14.87
2022-11-27T17:31:25.495Z,16.23
2022-11-27T17:33:56.699Z,15.97
2022-11-27T17:36:24.991Z,14.03
2022-11-27T17:38:53.592Z,12.07
2022-11-27T17:41:22.783Z,12.23
2022-11-27T17:43:51.348Z,11.20
2022-11-27T17:46:21.520Z,11.33
2022-11-27T17:48:49.435Z,11.07
2022-11-27T17:51:17.759Z,10.90
2022-11-27T17:53:45.476Z,10.63
2022-11-27T17:56:15.613Z,10.47
2022-11-27T17:58:44.923Z,10.33
2022-11-27T18:01:17.532Z,10.30
2022-11-27T18:03:46.166Z,10.50
2022-11-27T18:06:15.153Z,10.57
2022-11-27T18:08:43.237Z,10.47
2022-11-27T18:11:13.515Z,11.50
2022-11-27T18:13:41.226Z,11.67
2022-11-27T18:16:13.222Z,11.53
2022-11-27T18:18:41.603Z,10.93
2022-11-27T18:21:16.689Z,12.50
2022-11-27T18:24:20.659Z,11.57
2022-11-27T18:29:23.802Z,11.70
2022-11-27T18:31:53.376Z,10.87
2022-11-27T18:34:21.126Z,10.20
2022-11-27T18:36:48.831Z,10.43
2022-11-27T18:39:16.674Z,10.60
2022-11-27T18:41:44.336Z,10.80
2022-11-27T18:44:12.097Z,12.03
2022-11-27T18:46:40.436Z,12.40
2022-11-27T18:49:09.536Z,11.87
2022-11-27T18:51:37.337Z,10.80
2022-11-27T18:54:05.225Z,11.07
2022-11-27T18:56:33.207Z,11.27
2022-11-27T18:59:02.940Z,12.80
2022-11-27T19:01:36.724Z,12.20
2022-11-27T19:04:09.020Z,13.00
2022-11-27T19:06:37.614Z,11.87
2022-11-27T19:09:06.325Z,13.37
2022-11-27T19:11:34.937Z,12.40
2022-11-27T19:14:03.183Z,14.13
2022-11-27T19:16:33.984Z,14.73
2022-11-27T19:19:03.523Z,13.17
2022-11-27T19:21:34.039Z,12.77
2022-11-27T19:24:03.726Z,13.00
2022-11-27T19:26:33.040Z,13.40
2022-11-27T19:29:03.595Z,15.07
2022-11-27T19:31:33.055Z,14.97
2022-11-27T19:34:02.776Z,15.07
2022-11-27T19:36:33.588Z,15.47
2022-11-27T19:39:03.900Z,13.97
2022-11-27T19:41:31.604Z,17.70
2022-11-27T19:44:01.628Z,14.23
2022-11-27T19:46:30.808Z,13.73
2022-11-27T19:48:59.996Z,13.90
2022-11-27T19:51:29.817Z,14.27
2022-11-27T19:54:02.594Z,16.00
2022-11-27T19:56:35.594Z,15.13
2022-11-27T19:59:03.312Z,15.50
2022-11-27T20:01:31.115Z,14.90
2022-11-27T20:03:58.989Z,16.57
2022-11-27T20:06:27.921Z,16.90
2022-11-27T20:09:01.716Z,16.57
2022-11-27T20:11:34.967Z,14.43
2022-11-27T20:14:04.315Z,14.63
2022-11-27T20:16:32.805Z,15.20
2022-11-27T20:19:02.164Z,16.13
2022-11-27T20:21:29.916Z,15.07
2022-11-27T20:23:57.921Z,14.60
2022-11-27T20:26:30.412Z,13.50
2022-11-27T20:28:58.368Z,14.43
2022-11-27T20:31:27.689Z,14.27
2022-11-27T20:33:58.228Z,14.47
2022-11-27T20:36:26.714Z,15.87
2022-11-27T20:38:56.047Z,14.40
2022-11-27T20:41:24.518Z,14.90
2022-11-27T20:43:57.932Z,14.33
2022-11-27T20:46:26.666Z,14.23
2022-11-27T20:48:56.831Z,14.10
2022-11-27T20:51:28.376Z,14.53
2022-11-27T20:56:29.962Z,13.97
2022-11-27T20:58:59.676Z,13.93
2022-11-27T21:01:29.897Z,13.67
2022-11-27T21:04:00.350Z,14.07
2022-11-27T21:06:31.348Z,13.83
2022-11-27T21:09:00.753Z,13.93
2022-11-27T21:11:30.353Z,13.00
2022-11-27T21:14:01.034Z,13.70
2022-11-27T21:16:31.799Z,14.63
2022-11-27T21:19:02.738Z,14.00
2022-11-27T21:21:31.010Z,13.37
2022-11-27T21:23:58.799Z,13.43
2022-11-27T21:26:27.712Z,14.30
2022-11-27T21:28:55.546Z,13.20
2022-11-27T21:31:26.333Z,14.33
2022-11-27T21:33:55.692Z,13.73
2022-11-27T21:36:25.036Z,13.10
2022-11-27T21:38:52.762Z,13.07
2022-11-27T21:41:20.585Z,13.23
2022-11-27T21:43:49.716Z,14.13
2022-11-27T21:46:19.399Z,13.80
2022-11-27T21:48:49.311Z,13.63
2022-11-27T21:51:17.563Z,12.17
2022-11-27T21:53:47.014Z,13.50
2022-11-27T21:56:16.957Z,14.30
2022-11-27T21:58:44.879Z,14.83
2022-11-27T22:01:14.936Z,14.73
2022-11-27T22:03:43.165Z,15.77
2022-11-27T22:06:14.671Z,14.53
2022-11-27T22:08:43.488Z,16.43
2022-11-27T22:11:14.371Z,15.57
2022-11-27T22:13:42.512Z,14.87
2022-11-27T22:16:11.569Z,15.87
2022-11-27T22:18:39.454Z,14.23
2022-11-27T22:21:08.624Z,13.57
2022-11-27T22:23:38.530Z,13.27
2022-11-27T22:26:07.884Z,14.50
2022-11-27T22:28:36.433Z,14.70
2022-11-27T22:31:08.921Z,13.93
2022-11-27T22:33:37.049Z,13.13
2022-11-27T22:36:15.319Z,12.20
2022-11-27T22:38:44.633Z,12.30
2022-11-27T22:41:12.701Z,12.37
2022-11-27T22:43:41.002Z,13.33
2022-11-27T22:46:11.073Z,12.13
2022-11-27T22:48:38.970Z,12.97
2022-11-27T22:51:07.043Z,13.03
2022-11-27T22:53:34.761Z,13.33
2022-11-27T22:56:06.630Z,12.27
2022-11-27T22:58:39.785Z,12.03
2022-11-27T23:01:10.430Z,12.73
2022-11-27T23:03:38.919Z,12.63
2022-11-27T23:06:11.667Z,12.23
2022-11-27T23:08:40.051Z,11.47
2022-11-27T23:11:09.435Z,12.47
2022-11-27T23:13:37.790Z,12.00
2022-11-27T23:16:07.544Z,12.13
2022-11-27T23:18:35.590Z,12.40
2022-11-27T23:21:06.228Z,13.17
2022-11-27T23:23:34.046Z,12.87
2022-11-27T23:26:04.235Z,13.10
2022-11-27T23:28:33.636Z,13.13
2022-11-27T23:31:28.143Z,13.20
2022-11-27T23:33:53.010Z,12.97
2022-11-27T23:36:20.844Z,14.03
2022-11-27T23:38:49.008Z,14.07
2022-11-27T23:41:18.271Z,13.27
2022-11-27T23:43:47.941Z,13.43
2022-11-27T23:46:17.888Z,14.00
2022-11-27T23:48:46.214Z,13.73
2022-11-27T23:51:15.603Z,14.13
2022-11-27T23:53:43.527Z,14.23
2022-11-27T23:56:13.402Z,15.10
2022-11-27T23:58:46.660Z,14.93
